Hail, Saudi Arabia

7:22 AM AST on August 27, 2016 (GMT +0300)
Hail | | Change Station

Elev 3330 ft 27.44 °N, 41.69 °E | Updated 22 minutes ago

Clear
Clear
82 °F
Feels Like 82 °F
N
2
Wind Variable Wind from SW

Today
High -- | Low -- °F
--% Chance of Precip.
Yesterday
High -- | Low -- °F
Precip. -- in
Pressure 30.01 in
Visibility -9999.0 miles
Clouds
Dew Point 37 °F
Humidity 20%
Rainfall 0.00 in
Snow Depth Not available.
5:50 AM 6:38 PM
Waning Crescent, 28% visible
METAR OEHL 270400Z 22002KT CAVOK 28/03 Q1016
Pressure 30.01 in
Visibility -9999.0 miles
Clouds
Dew Point 37 °F
Humidity 20%
Rainfall 0.00 in
Snow Depth Not available.
5:50 AM 6:38 PM
Waning Crescent, 28% visible
METAR OEHL 270400Z 22002KT CAVOK 28/03 Q1016

10-Day Weather Forecast

No radar image for this location.
×

Almanac

Astronomy

Aug. 27, 2016 Rise Set
Actual Time
Civil Twilight
Nautical Twilight
Astronomical Twilight
Moon
Length of Visible Light
Length of Day
Tomorrow will be .
, % of the Moon is Illuminated

Today's Extremes

Country Highs Country Lows

Community

WunderPhotos

Upload Photos

1,935,299 photos uploaded!

WunderBlog® & News

Nearby

Air Quality

  Air Quality AQ Index Pollutant
Not available.

Snow Depth

Station Depth Elevation

Earthquake Activity

City Distance Mag. Time & Date
Minimum magnitude displayed is 2.5.

Coastal Water Temperatures

Place Temperature

Stations

Nearby Weather Stations

Station Location Temp. Windchill Dew Point Humidity Wind Precip. Elev Updated Type